Airport METAR Information

LTBA 210420Z 36006KT 7000 FEW017 BKN030 17/17 Q1022 NOSIG

VATSIM Livefeed

Card image cap

ATC Bookings

No position booked

Card image cap

Active ATC

No controllers online

Blog

Read our latest news and get to know us better.